Time;durP1;ratioP1;P1;durP2;ratioP2;P2;SDS_P1;SDS_P2;PMS_P1;PMS_P2;Temp;Humidity;BMP_temperature;BMP_pressure;BME280_temperature;BME280_humidity;BME280_pressure;Samples;Min_cycle;Max_cycle;Signal;HPM_P1;HPM_P2
2023/12/18 00:01:09;;;;;;;0.20;0.10;;;;;;;;;;4991810;28;20041;-87
2023/12/18 00:03:37;;;;;;;1.98;0.73;;;;;;;;;;4992393;28;20037;-88
2023/12/18 00:06:03;;;;;;;0.20;0.08;;;;;;;;;;5007629;28;20078;-86
2023/12/18 00:08:29;;;;;;;1.20;1.10;;;;;;;;;;4993802;28;20048;-87
2023/12/18 00:10:58;;;;;;;0.85;0.65;;;;;;;;;;4996911;28;20064;-87
2023/12/18 00:13:24;;;;;;;0.38;0.17;;;;;;;;;;4994733;28;20073;-86
2023/12/18 00:15:50;;;;;;;0.20;0.10;;;;;;;;;;5011489;28;20948;-87
2023/12/18 00:18:19;;;;;;;0.20;0.10;;;;;;;;;;4997216;28;20119;-87
2023/12/18 00:20:50;;;;;;;0.52;0.52;;;;;;;;;;5005955;28;20033;-88
2023/12/18 00:23:25;;;;;;;0.20;0.20;;;;;;;;;;4997432;28;20072;-88
2023/12/18 00:25:53;;;;;;;0.80;0.80;;;;;;;;;;5006479;28;20148;-84
2023/12/18 00:28:19;;;;;;;0.20;0.00;;;;;;;;;;4994023;28;20041;-85
2023/12/18 00:30:46;;;;;;;0.20;0.00;;;;;;;;;;4995776;28;20090;-86
2023/12/18 00:33:12;;;;;;;0.20;0.10;;;;;;;;;;4993259;28;20517;-85
2023/12/18 00:35:40;;;;;;;0.73;0.25;;;;;;;;;;5009156;28;20569;-86
2023/12/18 00:38:06;;;;;;;0.20;0.08;;;;;;;;;;4994680;28;20041;-85
2023/12/18 00:40:32;;;;;;;0.28;0.10;;;;;;;;;;4995341;28;20041;-87
2023/12/18 00:42:58;;;;;;;0.20;0.10;;;;;;;;;;4995102;28;20464;-84
2023/12/18 00:45:24;;;;;;;0.52;0.52;;;;;;;;;;4995208;28;20045;-85
2023/12/18 00:47:51;;;;;;;1.65;0.32;;;;;;;;;;5011386;28;20045;-85
2023/12/18 00:50:17;;;;;;;0.45;0.43;;;;;;;;;;4992128;28;20364;-86
2023/12/18 00:52:43;;;;;;;0.30;0.30;;;;;;;;;;5009069;28;20061;-86
2023/12/18 00:55:09;;;;;;;0.30;0.30;;;;;;;;;;4993592;28;20433;-86
2023/12/18 00:57:35;;;;;;;1.00;1.00;;;;;;;;;;4992540;28;20405;-87
2023/12/18 01:00:01;;;;;;;0.20;0.20;;;;;;;;;;4992706;28;20129;-86
2023/12/18 01:02:27;;;;;;;0.20;0.10;;;;;;;;;;4992747;28;20038;-87
2023/12/18 01:04:56;;;;;;;0.30;0.30;;;;;;;;;;4993354;28;20377;-86
2023/12/18 01:07:31;;;;;;;0.20;0.10;;;;;;;;;;5011718;28;20041;-86
2023/12/18 01:10:00;;;;;;;0.20;0.10;;;;;;;;;;4993551;28;21465;-88
2023/12/18 01:12:29;;;;;;;0.20;0.00;;;;;;;;;;4993255;28;20213;-87
2023/12/18 01:14:58;;;;;;;0.20;0.10;;;;;;;;;;5010489;28;20044;-87
2023/12/18 01:17:39;;;;;;;0.70;0.38;;;;;;;;;;5022102;28;20060;-84
2023/12/18 01:20:09;;;;;;;0.20;0.10;;;;;;;;;;4991732;28;20037;-86
2023/12/18 01:22:35;;;;;;;0.45;0.13;;;;;;;;;;4993856;28;20053;-86
2023/12/18 01:25:02;;;;;;;0.20;0.10;;;;;;;;;;4995566;28;20493;-89
2023/12/18 01:27:28;;;;;;;0.20;0.10;;;;;;;;;;5027049;28;20088;-87
2023/12/18 01:29:54;;;;;;;0.20;0.20;;;;;;;;;;5005124;28;20047;-86
2023/12/18 01:32:20;;;;;;;0.30;0.25;;;;;;;;;;4992940;28;20034;-87
2023/12/18 01:34:46;;;;;;;0.20;0.10;;;;;;;;;;5006446;28;20124;-86
2023/12/18 01:37:12;;;;;;;0.20;0.05;;;;;;;;;;4992913;28;20048;-87
2023/12/18 01:39:39;;;;;;;0.40;0.28;;;;;;;;;;4985980;28;20041;-87
2023/12/18 01:42:05;;;;;;;0.25;0.25;;;;;;;;;;4991428;28;20034;-86
2023/12/18 01:44:31;;;;;;;0.20;0.10;;;;;;;;;;5005574;28;20037;-84
2023/12/18 01:47:01;;;;;;;0.43;0.43;;;;;;;;;;4992349;28;20441;-88
2023/12/18 01:49:27;;;;;;;1.85;1.25;;;;;;;;;;4995199;28;20041;-87
2023/12/18 01:51:56;;;;;;;0.20;0.10;;;;;;;;;;5012631;28;20447;-85
2023/12/18 01:54:25;;;;;;;0.20;0.08;;;;;;;;;;4989914;28;20080;-86
2023/12/18 01:56:52;;;;;;;0.20;0.00;;;;;;;;;;5018814;28;20048;-85
2023/12/18 01:59:19;;;;;;;0.20;0.10;;;;;;;;;;4990956;28;20037;-87
2023/12/18 02:01:48;;;;;;;0.20;0.17;;;;;;;;;;4991550;28;20421;-87
2023/12/18 02:04:15;;;;;;;0.20;0.00;;;;;;;;;;4993434;28;20029;-86
2023/12/18 02:06:41;;;;;;;0.20;0.20;;;;;;;;;;5028294;28;20064;-86
2023/12/18 02:09:09;;;;;;;0.20;0.10;;;;;;;;;;4989264;28;20037;-85
2023/12/18 02:11:35;;;;;;;0.20;0.00;;;;;;;;;;5008916;28;20127;-85
2023/12/18 02:14:06;;;;;;;0.20;0.05;;;;;;;;;;4992331;28;20466;-87
2023/12/18 02:16:32;;;;;;;0.52;0.52;;;;;;;;;;4989940;28;20128;-86
2023/12/18 02:18:58;;;;;;;0.20;0.05;;;;;;;;;;4989751;28;20116;-86
2023/12/18 02:21:24;;;;;;;0.20;0.10;;;;;;;;;;4992477;28;20061;-87
2023/12/18 02:23:51;;;;;;;0.20;0.00;;;;;;;;;;5004725;28;20033;-85
2023/12/18 02:26:23;;;;;;;0.20;0.10;;;;;;;;;;4994012;28;20053;-89
2023/12/18 02:28:52;;;;;;;0.57;0.40;;;;;;;;;;5005040;28;20277;-87
2023/12/18 02:31:21;;;;;;;0.50;0.40;;;;;;;;;;4992527;28;20040;-86
2023/12/18 02:33:49;;;;;;;0.20;0.13;;;;;;;;;;4989727;28;20068;-85
2023/12/18 02:36:18;;;;;;;0.20;0.00;;;;;;;;;;4992308;28;20468;-85
2023/12/18 02:38:47;;;;;;;0.65;0.32;;;;;;;;;;5008659;28;20493;-89
2023/12/18 02:41:22;;;;;;;0.20;0.10;;;;;;;;;;5002723;28;20041;-88
2023/12/18 02:43:48;;;;;;;0.20;0.20;;;;;;;;;;4994557;28;20117;-87
2023/12/18 02:46:16;;;;;;;0.20;0.10;;;;;;;;;;4988762;28;20041;-87
2023/12/18 02:48:42;;;;;;;0.20;0.05;;;;;;;;;;5007802;28;20037;-85
2023/12/18 02:51:08;;;;;;;0.20;0.10;;;;;;;;;;4987491;28;20064;-84
2023/12/18 02:53:34;;;;;;;0.20;0.00;;;;;;;;;;5007665;28;20412;-85
2023/12/18 02:56:00;;;;;;;0.20;0.20;;;;;;;;;;5009047;28;20037;-87
2023/12/18 02:58:26;;;;;;;0.20;0.10;;;;;;;;;;5006623;28;20045;-86
2023/12/18 03:00:58;;;;;;;0.20;0.10;;;;;;;;;;4990777;28;20490;-86
2023/12/18 03:03:30;;;;;;;0.20;0.10;;;;;;;;;;4986474;28;20047;-87
2023/12/18 03:05:56;;;;;;;0.20;0.10;;;;;;;;;;4985825;28;20049;-88
2023/12/18 03:08:22;;;;;;;0.22;0.20;;;;;;;;;;4991275;28;20055;-87
2023/12/18 03:10:52;;;;;;;0.68;0.68;;;;;;;;;;4987404;28;20053;-86
2023/12/18 03:13:18;;;;;;;0.22;0.15;;;;;;;;;;4991840;28;20057;-89
2023/12/18 03:15:44;;;;;;;0.93;0.35;;;;;;;;;;5005910;28;20129;-85
2023/12/18 03:18:10;;;;;;;0.20;0.10;;;;;;;;;;4991074;28;20049;-86
2023/12/18 03:20:36;;;;;;;0.20;0.10;;;;;;;;;;4990151;28;20040;-87
2023/12/18 03:23:02;;;;;;;0.20;0.10;;;;;;;;;;4988938;28;20124;-88
2023/12/18 03:25:28;;;;;;;0.20;0.10;;;;;;;;;;5025498;28;20083;-86
2023/12/18 03:27:56;;;;;;;0.20;0.00;;;;;;;;;;5001976;28;20069;-89
2023/12/18 03:30:22;;;;;;;0.20;0.10;;;;;;;;;;5005405;28;20120;-84
2023/12/18 03:32:48;;;;;;;0.20;0.00;;;;;;;;;;5006991;28;20037;-86
2023/12/18 03:35:15;;;;;;;0.20;0.00;;;;;;;;;;5005953;28;20044;-88
2023/12/18 03:37:41;;;;;;;0.25;0.20;;;;;;;;;;4990937;28;20045;-85
2023/12/18 03:40:13;;;;;;;0.20;0.10;;;;;;;;;;4990855;28;20409;-87
2023/12/18 03:42:44;;;;;;;0.20;0.10;;;;;;;;;;5005774;28;20054;-87
2023/12/18 03:45:14;;;;;;;0.20;0.10;;;;;;;;;;4994550;28;20041;-87
2023/12/18 03:47:40;;;;;;;0.20;0.10;;;;;;;;;;4992815;28;20096;-86
2023/12/18 03:50:06;;;;;;;0.28;0.28;;;;;;;;;;4993823;28;20485;-86
2023/12/18 03:52:32;;;;;;;0.20;0.10;;;;;;;;;;4987869;28;20034;-86
2023/12/18 03:54:59;;;;;;;0.30;0.30;;;;;;;;;;5010367;28;20056;-85
2023/12/18 03:57:25;;;;;;;0.28;0.15;;;;;;;;;;4991347;28;20037;-85
2023/12/18 03:59:51;;;;;;;0.20;0.20;;;;;;;;;;5008441;28;20075;-88
2023/12/18 04:02:17;;;;;;;0.40;0.40;;;;;;;;;;5025069;28;20033;-87
2023/12/18 04:04:44;;;;;;;0.30;0.25;;;;;;;;;;5009940;28;20131;-87
2023/12/18 04:07:10;;;;;;;0.20;0.10;;;;;;;;;;4993534;28;20111;-85
2023/12/18 04:09:39;;;;;;;0.30;0.30;;;;;;;;;;5009818;28;20041;-86
2023/12/18 04:12:06;;;;;;;0.20;0.10;;;;;;;;;;5010189;28;20065;-85
2023/12/18 04:14:32;;;;;;;0.22;0.22;;;;;;;;;;4994661;28;20060;-87
2023/12/18 04:16:58;;;;;;;0.20;0.20;;;;;;;;;;5026108;28;20038;-86
2023/12/18 04:19:35;;;;;;;0.40;0.40;;;;;;;;;;4993734;28;20063;-88
2023/12/18 04:22:01;;;;;;;0.20;0.00;;;;;;;;;;4989345;28;20042;-86
2023/12/18 04:24:27;;;;;;;0.20;0.10;;;;;;;;;;4994065;28;20120;-85
2023/12/18 04:26:54;;;;;;;1.05;0.80;;;;;;;;;;4996217;28;20071;-84
2023/12/18 04:29:20;;;;;;;0.20;0.10;;;;;;;;;;5012528;28;20052;-87
2023/12/18 04:34:29;;;;;;;0.20;0.10;;;;;;;;;;5005266;28;20050;-89
2023/12/18 04:36:55;;;;;;;0.20;0.10;;;;;;;;;;4990658;28;20133;-87
2023/12/18 04:39:22;;;;;;;0.20;0.10;;;;;;;;;;4976433;28;20034;-87
2023/12/18 04:41:48;;;;;;;0.20;0.10;;;;;;;;;;4981941;28;20045;-87
2023/12/18 04:44:20;;;;;;;0.20;0.00;;;;;;;;;;4958598;28;20046;-87
2023/12/18 04:47:01;;;;;;;1.48;0.77;;;;;;;;;;4970257;28;20502;-87
2023/12/18 04:49:39;;;;;;;0.20;0.13;;;;;;;;;;4952917;28;20116;-86
2023/12/18 04:52:11;;;;;;;0.22;0.22;;;;;;;;;;4969690;28;20117;-85
2023/12/18 04:54:46;;;;;;;1.40;0.85;;;;;;;;;;4970342;28;20107;-87
2023/12/18 04:57:18;;;;;;;0.30;0.05;;;;;;;;;;4961978;28;20050;-87
2023/12/18 04:59:56;;;;;;;0.20;0.00;;;;;;;;;;4956783;28;20046;-88
2023/12/18 05:02:28;;;;;;;0.20;0.00;;;;;;;;;;4972353;28;20050;-88
2023/12/18 05:04:59;;;;;;;0.20;0.10;;;;;;;;;;4957648;28;20050;-85
2023/12/18 05:07:27;;;;;;;0.20;0.10;;;;;;;;;;4954181;28;20402;-86
2023/12/18 05:12:45;;;;;;;0.20;0.08;;;;;;;;;;4971127;28;20050;-86
2023/12/18 05:15:24;;;;;;;0.30;0.20;;;;;;;;;;4956406;28;20518;-87
2023/12/18 05:17:50;;;;;;;0.32;0.32;;;;;;;;;;4962364;28;20667;-84
2023/12/18 05:20:40;;;;;;;0.20;0.10;;;;;;;;;;4948848;28;20045;-88
2023/12/18 05:23:15;;;;;;;1.23;1.13;;;;;;;;;;4958125;28;20042;-86
2023/12/18 05:25:44;;;;;;;0.20;0.20;;;;;;;;;;4970537;28;20042;-86
2023/12/18 05:28:13;;;;;;;0.20;0.10;;;;;;;;;;4959794;28;20108;-89
2023/12/18 05:30:42;;;;;;;0.20;0.10;;;;;;;;;;4960350;28;20494;-88
2023/12/18 05:33:08;;;;;;;0.32;0.32;;;;;;;;;;4969956;28;20406;-86
2023/12/18 05:35:47;;;;;;;0.20;0.20;;;;;;;;;;4971257;28;20553;-88
2023/12/18 05:38:15;;;;;;;0.75;0.75;;;;;;;;;;4958515;28;20038;-88
2023/12/18 05:40:44;;;;;;;0.20;0.10;;;;;;;;;;4953830;28;20043;-88
2023/12/18 05:43:10;;;;;;;0.20;0.10;;;;;;;;;;4954377;28;20046;-84
2023/12/18 05:45:48;;;;;;;0.20;0.10;;;;;;;;;;4971406;28;20050;-87
2023/12/18 05:48:31;;;;;;;0.20;0.17;;;;;;;;;;4975566;28;20042;-88
2023/12/18 05:51:00;;;;;;;0.20;0.10;;;;;;;;;;4957853;28;20057;-86
2023/12/18 05:53:26;;;;;;;0.85;0.43;;;;;;;;;;4969243;28;20523;-86
2023/12/18 05:55:52;;;;;;;0.20;0.10;;;;;;;;;;4957783;28;20046;-87
2023/12/18 05:58:21;;;;;;;0.20;0.10;;;;;;;;;;4956913;28;20070;-86
2023/12/18 06:00:53;;;;;;;0.20;0.00;;;;;;;;;;4972310;28;20030;-85
2023/12/18 06:03:19;;;;;;;0.30;0.30;;;;;;;;;;4978551;28;20065;-87
2023/12/18 06:05:46;;;;;;;0.20;0.10;;;;;;;;;;4975071;28;20049;-87
2023/12/18 06:08:21;;;;;;;0.40;0.30;;;;;;;;;;4958355;28;20042;-88
2023/12/18 06:11:03;;;;;;;0.20;0.00;;;;;;;;;;4956288;28;20070;-86
2023/12/18 06:13:35;;;;;;;0.45;0.10;;;;;;;;;;4975353;28;20038;-85
2023/12/18 06:16:01;;;;;;;0.43;0.43;;;;;;;;;;4952513;28;20114;-84
2023/12/18 06:18:34;;;;;;;0.20;0.10;;;;;;;;;;4972996;28;20034;-83
2023/12/18 06:21:04;;;;;;;0.20;0.00;;;;;;;;;;4957404;28;20604;-85
2023/12/18 06:23:36;;;;;;;0.20;0.10;;;;;;;;;;4957178;28;20042;-86
2023/12/18 06:26:08;;;;;;;0.20;0.10;;;;;;;;;;4952508;28;20089;-87
2023/12/18 06:28:52;;;;;;;0.20;0.10;;;;;;;;;;4959337;28;20060;-86
2023/12/18 06:31:23;;;;;;;0.45;0.45;;;;;;;;;;4972424;28;20049;-86
2023/12/18 06:34:01;;;;;;;3.70;0.85;;;;;;;;;;4955141;28;20046;-87
2023/12/18 06:36:28;;;;;;;0.20;0.00;;;;;;;;;;4989969;28;20100;-83
2023/12/18 06:38:54;;;;;;;1.15;0.70;;;;;;;;;;4960147;28;20096;-86
2023/12/18 06:41:20;;;;;;;0.30;0.30;;;;;;;;;;4968118;28;20108;-87
2023/12/18 06:43:46;;;;;;;0.82;0.75;;;;;;;;;;4951659;28;20651;-87
2023/12/18 06:46:18;;;;;;;0.20;0.05;;;;;;;;;;4956269;28;20598;-87
2023/12/18 06:48:44;;;;;;;0.20;0.05;;;;;;;;;;4964246;28;20594;-86
2023/12/18 06:51:10;;;;;;;0.20;0.00;;;;;;;;;;4988487;28;20050;-88
2023/12/18 06:53:39;;;;;;;0.20;0.10;;;;;;;;;;4954948;28;20134;-87
2023/12/18 06:56:11;;;;;;;0.20;0.10;;;;;;;;;;4977929;28;20684;-85
2023/12/18 06:58:40;;;;;;;0.20;0.10;;;;;;;;;;4958893;28;20294;-86
2023/12/18 07:01:19;;;;;;;0.45;0.45;;;;;;;;;;4957973;28;20301;-86
2023/12/18 07:03:45;;;;;;;0.30;0.20;;;;;;;;;;4959630;28;20038;-90
2023/12/18 07:06:12;;;;;;;0.20;0.10;;;;;;;;;;4959146;28;20070;-85
2023/12/18 07:08:41;;;;;;;4.47;0.70;;;;;;;;;;4991052;28;20050;-89
2023/12/18 07:11:10;;;;;;;0.40;0.20;;;;;;;;;;4957981;28;20042;-88
2023/12/18 07:13:41;;;;;;;0.20;0.10;;;;;;;;;;4954525;28;20116;-87
2023/12/18 07:16:21;;;;;;;0.20;0.10;;;;;;;;;;4976587;28;20184;-87
2023/12/18 07:18:47;;;;;;;0.55;0.40;;;;;;;;;;4951756;28;20362;-83
2023/12/18 07:21:15;;;;;;;0.32;0.32;;;;;;;;;;4971678;28;20076;-88
2023/12/18 07:23:47;;;;;;;1.00;0.22;;;;;;;;;;4977452;28;20034;-87
2023/12/18 07:26:26;;;;;;;0.20;0.10;;;;;;;;;;4966844;28;20185;-87
2023/12/18 07:29:04;;;;;;;0.20;0.20;;;;;;;;;;4957410;28;20042;-88
2023/12/18 07:31:45;;;;;;;0.20;0.10;;;;;;;;;;4969506;28;20062;-85
2023/12/18 07:34:14;;;;;;;0.20;0.10;;;;;;;;;;4971783;28;20043;-87
2023/12/18 07:36:43;;;;;;;0.20;0.10;;;;;;;;;;4963477;28;20058;-85
2023/12/18 07:39:20;;;;;;;0.20;0.10;;;;;;;;;;4969265;28;20042;-85
2023/12/18 07:41:49;;;;;;;0.20;0.20;;;;;;;;;;4948478;28;20051;-88
2023/12/18 07:44:34;;;;;;;0.25;0.20;;;;;;;;;;4956672;28;20047;-85
2023/12/18 07:47:02;;;;;;;0.20;0.10;;;;;;;;;;4975163;28;20050;-89
2023/12/18 07:49:31;;;;;;;0.20;0.10;;;;;;;;;;4970069;28;20052;-86
2023/12/18 07:51:57;;;;;;;0.20;0.20;;;;;;;;;;4954158;28;20371;-85
2023/12/18 07:54:26;;;;;;;0.20;0.10;;;;;;;;;;4951876;28;20046;-86
2023/12/18 07:56:52;;;;;;;0.20;0.20;;;;;;;;;;4958942;28;20158;-84
2023/12/18 07:59:21;;;;;;;0.75;0.65;;;;;;;;;;4958504;28;20042;-87
2023/12/18 08:01:50;;;;;;;2.58;1.10;;;;;;;;;;4971520;28;20046;-87
2023/12/18 08:04:31;;;;;;;0.20;0.17;;;;;;;;;;4961866;28;20046;-85
2023/12/18 08:07:03;;;;;;;0.73;0.55;;;;;;;;;;4973750;28;20061;-88
2023/12/18 08:09:49;;;;;;;0.40;0.38;;;;;;;;;;4958098;28;20050;-87
2023/12/18 08:12:15;;;;;;;0.40;0.40;;;;;;;;;;4961364;28;20049;-84
2023/12/18 08:14:50;;;;;;;0.77;0.50;;;;;;;;;;4975381;28;20437;-86
2023/12/18 08:17:19;;;;;;;0.40;0.30;;;;;;;;;;4963971;28;20223;-87
2023/12/18 08:20:00;;;;;;;0.25;0.25;;;;;;;;;;4982853;28;20482;-83
2023/12/18 08:22:35;;;;;;;0.30;0.20;;;;;;;;;;4959094;28;20034;-87
2023/12/18 08:25:12;;;;;;;0.20;0.00;;;;;;;;;;4958611;28;20136;-84
2023/12/18 08:27:41;;;;;;;0.20;0.10;;;;;;;;;;4955053;28;20061;-86
2023/12/18 08:30:13;;;;;;;0.20;0.17;;;;;;;;;;4960051;28;20043;-87
2023/12/18 08:32:42;;;;;;;0.20;0.10;;;;;;;;;;4955117;28;20047;-85
2023/12/18 08:35:11;;;;;;;0.20;0.10;;;;;;;;;;4960622;28;20034;-90
2023/12/18 08:37:49;;;;;;;2.25;0.95;;;;;;;;;;4973330;28;20192;-88
2023/12/18 08:40:15;;;;;;;0.63;0.47;;;;;;;;;;4963839;28;20053;-84
2023/12/18 08:42:47;;;;;;;0.20;0.10;;;;;;;;;;4967004;28;20042;-86
2023/12/18 08:45:25;;;;;;;0.20;0.10;;;;;;;;;;4962603;28;20043;-87
2023/12/18 08:47:51;;;;;;;0.20;0.15;;;;;;;;;;4961483;28;20172;-88
2023/12/18 08:50:35;;;;;;;0.20;0.10;;;;;;;;;;4959259;28;20050;-89
2023/12/18 08:53:01;;;;;;;0.20;0.10;;;;;;;;;;4959090;28;20034;-85
2023/12/18 08:55:38;;;;;;;0.47;0.47;;;;;;;;;;4957758;28;20042;-86
2023/12/18 08:58:25;;;;;;;0.20;0.20;;;;;;;;;;4956586;28;20490;-85
2023/12/18 09:00:53;;;;;;;0.20;0.10;;;;;;;;;;4963934;28;20038;-86
2023/12/18 09:03:20;;;;;;;0.20;0.10;;;;;;;;;;4954919;28;20112;-87
2023/12/18 09:05:47;;;;;;;0.38;0.38;;;;;;;;;;4956354;28;20039;-84
2023/12/18 09:08:41;;;;;;;;;;;;;;;;;;;;;
2023/12/18 09:11:02;;;;;;;0.20;0.00;;;;;;;;;;4974891;28;20050;-84
2023/12/18 09:13:35;;;;;;;1.20;0.63;;;;;;;;;;4953230;28;20057;-86
2023/12/18 09:16:08;;;;;;;0.20;0.15;;;;;;;;;;4960613;28;20047;-88
2023/12/18 09:18:40;;;;;;;0.20;0.03;;;;;;;;;;4960538;28;20049;-86
2023/12/18 09:21:15;;;;;;;0.20;0.20;;;;;;;;;;4978668;28;20042;-85
2023/12/18 09:23:51;;;;;;;;;;;;;;;;;;;;;
2023/12/18 09:26:52;;;;;;;;;;;;;;;;;;;;;
2023/12/18 09:29:33;;;;;;;0.20;0.10;;;;;;;;;;4978829;28;20054;-87
2023/12/18 09:32:02;;;;;;;0.20;0.20;;;;;;;;;;4960260;28;20064;-85
2023/12/18 09:34:39;;;;;;;0.95;0.70;;;;;;;;;;4970239;28;20034;-89
2023/12/18 09:37:12;;;;;;;1.05;0.30;;;;;;;;;;4992128;28;20513;-85
2023/12/18 09:39:44;;;;;;;1.38;0.45;;;;;;;;;;4975127;28;20068;-89
2023/12/18 09:42:16;;;;;;;0.20;0.00;;;;;;;;;;4957565;28;20053;-88
2023/12/18 09:44:46;;;;;;;0.20;0.10;;;;;;;;;;4962320;28;20042;-88
2023/12/18 09:47:15;;;;;;;0.20;0.10;;;;;;;;;;4958408;28;20046;-89
2023/12/18 09:49:49;;;;;;;0.20;0.10;;;;;;;;;;4963036;28;20050;-88
2023/12/18 09:55:32;;;;;;;0.20;0.10;;;;;;;;;;4983766;28;20050;-84
2023/12/18 09:58:00;;;;;;;0.20;0.13;;;;;;;;;;4959191;28;20042;-85
2023/12/18 10:00:26;;;;;;;0.65;0.20;;;;;;;;;;4982833;28;20046;-89
2023/12/18 10:03:13;;;;;;;0.52;0.40;;;;;;;;;;4964922;28;20042;-86
2023/12/18 10:05:54;;;;;;;0.20;0.10;;;;;;;;;;4963945;28;20085;-87
2023/12/18 10:08:43;;;;;;;0.20;0.10;;;;;;;;;;4974521;28;20517;-86
2023/12/18 10:11:27;;;;;;;0.20;0.10;;;;;;;;;;4967939;28;20042;-90
2023/12/18 10:13:58;;;;;;;0.22;0.22;;;;;;;;;;4978633;28;20418;-88
2023/12/18 10:17:02;;;;;;;1.20;0.40;;;;;;;;;;4960806;28;20194;-86
2023/12/18 10:19:34;;;;;;;0.20;0.10;;;;;;;;;;4976092;28;20100;-88
2023/12/18 10:22:05;;;;;;;0.95;0.47;;;;;;;;;;4958606;28;20046;-85
2023/12/18 10:24:31;;;;;;;0.30;0.28;;;;;;;;;;4959014;28;20038;-87
2023/12/18 10:27:02;;;;;;;0.20;0.05;;;;;;;;;;4990926;28;20162;-87
2023/12/18 10:29:28;;;;;;;0.20;0.15;;;;;;;;;;4974397;28;20110;-84
2023/12/18 10:31:54;;;;;;;0.20;0.10;;;;;;;;;;4955131;28;20084;-86
2023/12/18 10:34:21;;;;;;;0.40;0.40;;;;;;;;;;5013099;23;21676;-83
2023/12/18 10:36:49;;;;;;;0.60;0.17;;;;;;;;;;4996644;28;20038;-85
2023/12/18 10:39:18;;;;;;;0.38;0.30;;;;;;;;;;5003216;28;20065;-81
2023/12/18 10:41:45;;;;;;;0.20;0.05;;;;;;;;;;4994195;28;20370;-84
2023/12/18 10:44:12;;;;;;;0.20;0.00;;;;;;;;;;4970331;28;20038;-85
2023/12/18 10:46:39;;;;;;;0.20;0.20;;;;;;;;;;4971682;28;20129;-86
2023/12/18 10:49:06;;;;;;;1.10;1.10;;;;;;;;;;4988623;28;20041;-85
2023/12/18 10:51:40;;;;;;;0.40;0.40;;;;;;;;;;4993034;28;20494;-83
2023/12/18 10:54:07;;;;;;;0.20;0.10;;;;;;;;;;4968762;28;20064;-84
2023/12/18 10:56:35;;;;;;;0.20;0.20;;;;;;;;;;4972101;28;20038;-85
2023/12/18 10:59:03;;;;;;;0.80;0.40;;;;;;;;;;4990308;28;20081;-85
2023/12/18 11:01:29;;;;;;;0.63;0.52;;;;;;;;;;4971899;28;20030;-83
2023/12/18 11:03:55;;;;;;;0.22;0.22;;;;;;;;;;4969544;28;20120;-85
2023/12/18 11:06:22;;;;;;;0.20;0.00;;;;;;;;;;4967803;28;20127;-86
2023/12/18 11:08:49;;;;;;;0.20;0.10;;;;;;;;;;4986833;28;20646;-85
2023/12/18 11:11:19;;;;;;;0.20;0.10;;;;;;;;;;4971886;28;20053;-86
2023/12/18 11:13:58;;;;;;;0.30;0.30;;;;;;;;;;4984579;28;20050;-86
2023/12/18 11:16:30;;;;;;;0.20;0.10;;;;;;;;;;4993549;28;20046;-83
2023/12/18 11:18:56;;;;;;;0.73;0.57;;;;;;;;;;4989814;28;20040;-86
2023/12/18 11:21:22;;;;;;;0.57;0.57;;;;;;;;;;4971404;28;20064;-85
2023/12/18 11:23:52;;;;;;;0.85;0.40;;;;;;;;;;4970368;28;20122;-87
2023/12/18 11:26:19;;;;;;;0.43;0.43;;;;;;;;;;4966191;28;20058;-86
2023/12/18 11:28:50;;;;;;;0.38;0.32;;;;;;;;;;4973598;28;20042;-84
2023/12/18 11:31:20;;;;;;;0.30;0.30;;;;;;;;;;4997692;28;20053;-86
2023/12/18 11:34:01;;;;;;;0.20;0.10;;;;;;;;;;4987315;28;20045;-85
2023/12/18 11:36:30;;;;;;;0.20;0.10;;;;;;;;;;4981522;28;20033;-85
2023/12/18 11:38:59;;;;;;;0.20;0.10;;;;;;;;;;4994897;28;20038;-89
2023/12/18 11:41:41;;;;;;;0.20;0.20;;;;;;;;;;4983174;28;20496;-86
2023/12/18 11:44:08;;;;;;;0.80;0.63;;;;;;;;;;4991887;28;20129;-83
2023/12/18 11:46:34;;;;;;;0.20;0.10;;;;;;;;;;4975042;28;20042;-85
2023/12/18 11:49:02;;;;;;;0.20;0.20;;;;;;;;;;4993916;28;20045;-83
2023/12/18 11:51:31;;;;;;;0.20;0.05;;;;;;;;;;4974647;28;20056;-86
2023/12/18 11:54:01;;;;;;;1.95;0.65;;;;;;;;;;4992850;28;20129;-87
2023/12/18 11:56:42;;;;;;;0.22;0.20;;;;;;;;;;4993464;28;20034;-86
2023/12/18 11:59:08;;;;;;;1.15;0.57;;;;;;;;;;4974650;28;20037;-85
2023/12/18 12:01:35;;;;;;;1.10;0.38;;;;;;;;;;4977312;28;20050;-85
2023/12/18 12:04:04;;;;;;;0.20;0.10;;;;;;;;;;4977239;28;20034;-86
2023/12/18 12:06:30;;;;;;;1.33;0.50;;;;;;;;;;4969957;28;20042;-86
2023/12/18 12:08:59;;;;;;;0.63;0.25;;;;;;;;;;4991070;28;20521;-86
2023/12/18 12:11:28;;;;;;;0.30;0.30;;;;;;;;;;4971836;28;20034;-87
2023/12/18 12:13:57;;;;;;;0.20;0.10;;;;;;;;;;4993402;28;20044;-87
2023/12/18 12:16:29;;;;;;;0.32;0.32;;;;;;;;;;4968358;28;20043;-87
2023/12/18 12:18:55;;;;;;;0.32;0.32;;;;;;;;;;4975898;28;20428;-86
2023/12/18 12:21:26;;;;;;;0.30;0.20;;;;;;;;;;4977524;28;20445;-86
2023/12/18 12:23:56;;;;;;;0.20;0.10;;;;;;;;;;4971883;28;20046;-86
2023/12/18 12:26:31;;;;;;;0.95;0.95;;;;;;;;;;4969100;28;20042;-86
2023/12/18 12:29:00;;;;;;;0.20;0.10;;;;;;;;;;4990714;28;20042;-84
2023/12/18 12:31:32;;;;;;;0.28;0.20;;;;;;;;;;4974231;28;20049;-85
2023/12/18 12:34:02;;;;;;;0.20;0.20;;;;;;;;;;4995240;28;20050;-87
2023/12/18 12:36:29;;;;;;;0.70;0.40;;;;;;;;;;4990606;28;20042;-84
2023/12/18 12:38:58;;;;;;;0.20;0.15;;;;;;;;;;4990388;28;20161;-86
2023/12/18 12:41:25;;;;;;;0.40;0.22;;;;;;;;;;4967887;28;20038;-84
2023/12/18 12:43:51;;;;;;;0.20;0.10;;;;;;;;;;4989019;28;20551;-83
2023/12/18 12:46:17;;;;;;;0.20;0.10;;;;;;;;;;4970631;28;20054;-84
2023/12/18 12:48:44;;;;;;;0.20;0.20;;;;;;;;;;4988661;28;20038;-85
2023/12/18 12:51:10;;;;;;;0.60;0.60;;;;;;;;;;4993060;28;20064;-86
2023/12/18 12:53:36;;;;;;;0.28;0.17;;;;;;;;;;4975751;28;20049;-85
2023/12/18 12:56:03;;;;;;;0.22;0.20;;;;;;;;;;4976299;28;20065;-85
2023/12/18 12:58:33;;;;;;;0.52;0.30;;;;;;;;;;4984312;28;20588;-81
2023/12/18 13:01:01;;;;;;;0.40;0.30;;;;;;;;;;4968632;28;20038;-85
2023/12/18 13:03:34;;;;;;;0.20;0.20;;;;;;;;;;4970263;28;20553;-83
2023/12/18 13:06:00;;;;;;;0.20;0.10;;;;;;;;;;4972074;28;20131;-86
2023/12/18 13:08:26;;;;;;;0.38;0.38;;;;;;;;;;4973979;28;20041;-85
2023/12/18 13:10:53;;;;;;;0.20;0.10;;;;;;;;;;4968937;28;20481;-88
2023/12/18 13:13:19;;;;;;;0.20;0.17;;;;;;;;;;5004817;28;20200;-86
2023/12/18 13:15:45;;;;;;;0.30;0.30;;;;;;;;;;4970956;28;20042;-88
2023/12/18 13:18:17;;;;;;;0.30;0.30;;;;;;;;;;4974153;28;20072;-85
2023/12/18 13:20:44;;;;;;;0.25;0.22;;;;;;;;;;4972306;28;20041;-85
2023/12/18 13:23:15;;;;;;;0.90;0.90;;;;;;;;;;4960384;28;20037;-88
2023/12/18 13:25:44;;;;;;;0.20;0.20;;;;;;;;;;4973562;28;20402;-86
2023/12/18 13:28:13;;;;;;;0.20;0.20;;;;;;;;;;4975565;28;20387;-84
2023/12/18 13:30:39;;;;;;;0.20;0.10;;;;;;;;;;4988149;28;20041;-83
2023/12/18 13:33:18;;;;;;;0.40;0.40;;;;;;;;;;4972033;28;20061;-85
2023/12/18 13:35:53;;;;;;;0.20;0.10;;;;;;;;;;4972636;28;20054;-85
2023/12/18 13:38:19;;;;;;;0.20;0.10;;;;;;;;;;4969658;28;20234;-85
2023/12/18 13:40:48;;;;;;;0.20;0.10;;;;;;;;;;4987969;28;20038;-85
2023/12/18 13:43:14;;;;;;;0.20;0.10;;;;;;;;;;4991309;28;20041;-86
2023/12/18 13:45:40;;;;;;;2.25;0.28;;;;;;;;;;4990962;28;20750;-84
2023/12/18 13:48:08;;;;;;;0.73;0.73;;;;;;;;;;4987073;28;20365;-87
2023/12/18 13:50:34;;;;;;;0.47;0.47;;;;;;;;;;4967507;28;20033;-86
2023/12/18 13:53:00;;;;;;;0.20;0.10;;;;;;;;;;5007228;28;20509;-86
2023/12/18 13:55:26;;;;;;;0.80;0.80;;;;;;;;;;4968075;28;20049;-86
2023/12/18 13:57:58;;;;;;;0.20;0.10;;;;;;;;;;4967346;28;20042;-86
2023/12/18 14:00:30;;;;;;;0.20;0.08;;;;;;;;;;4970297;28;20429;-87
2023/12/18 14:03:06;;;;;;;0.20;0.10;;;;;;;;;;4984104;28;20493;-86
2023/12/18 14:05:32;;;;;;;0.30;0.20;;;;;;;;;;4971886;28;20042;-85
2023/12/18 14:08:04;;;;;;;4.03;1.65;;;;;;;;;;4973682;28;20053;-84
2023/12/18 14:10:30;;;;;;;0.82;0.40;;;;;;;;;;4991198;28;20038;-86
2023/12/18 14:12:56;;;;;;;0.20;0.20;;;;;;;;;;4976042;28;20129;-85
2023/12/18 14:15:22;;;;;;;0.40;0.40;;;;;;;;;;4972127;28;20528;-84
2023/12/18 14:17:48;;;;;;;0.20;0.10;;;;;;;;;;4970299;28;20086;-87
2023/12/18 14:20:14;;;;;;;0.20;0.20;;;;;;;;;;4969018;28;20046;-85
2023/12/18 14:22:47;;;;;;;0.52;0.52;;;;;;;;;;4989048;28;20030;-86
2023/12/18 14:25:14;;;;;;;3.15;0.52;;;;;;;;;;4968931;28;20046;-86
2023/12/18 14:27:40;;;;;;;0.20;0.20;;;;;;;;;;4970024;28;20432;-86
2023/12/18 14:30:12;;;;;;;1.40;0.90;;;;;;;;;;4974485;28;20042;-86
2023/12/18 14:32:38;;;;;;;0.20;0.05;;;;;;;;;;4972422;28;20068;-82
2023/12/18 14:35:10;;;;;;;0.20;0.15;;;;;;;;;;5006385;28;20034;-85
2023/12/18 14:37:36;;;;;;;0.55;0.55;;;;;;;;;;4973929;28;20057;-83
2023/12/18 14:40:12;;;;;;;0.20;0.05;;;;;;;;;;4971056;28;20204;-85
2023/12/18 14:42:50;;;;;;;0.40;0.30;;;;;;;;;;4968530;28;21534;-86
2023/12/18 14:45:16;;;;;;;0.20;0.20;;;;;;;;;;4974479;28;20522;-85
2023/12/18 14:47:48;;;;;;;0.20;0.10;;;;;;;;;;5004728;28;20561;-86
2023/12/18 14:50:25;;;;;;;0.20;0.15;;;;;;;;;;4988786;28;20224;-85
2023/12/18 14:53:03;;;;;;;0.20;0.10;;;;;;;;;;4966699;28;20053;-85
2023/12/18 14:55:30;;;;;;;0.20;0.10;;;;;;;;;;4972613;28;20073;-84
2023/12/18 14:58:02;;;;;;;0.98;0.40;;;;;;;;;;4974865;28;20091;-84
2023/12/18 15:00:34;;;;;;;0.83;0.63;;;;;;;;;;4972168;28;20530;-89
2023/12/18 15:03:05;;;;;;;0.35;0.35;;;;;;;;;;4991198;28;20045;-84
2023/12/18 15:05:34;;;;;;;0.20;0.10;;;;;;;;;;4994838;28;20113;-89
2023/12/18 15:08:03;;;;;;;0.20;0.20;;;;;;;;;;4982518;28;20476;-87
2023/12/18 15:10:29;;;;;;;0.35;0.35;;;;;;;;;;5006514;28;20074;-86